sensor_id;sensor_type;location;lat;lon;timestamp;temperature;humidity
14248;DHT22;7208;49.826;6.004;2023-04-16T19:50:41;9.40;99.90
14248;DHT22;7208;49.826;6.004;2023-04-16T19:53:07;9.30;99.90
14248;DHT22;7208;49.826;6.004;2023-04-16T19:55:33;9.30;99.90
14248;DHT22;7208;49.826;6.004;2023-04-16T19:57:59;9.30;99.90
14248;DHT22;7208;49.826;6.004;2023-04-16T20:00:31;9.30;99.90
14248;DHT22;7208;49.826;6.004;2023-04-16T20:02:56;9.30;99.90
14248;DHT22;7208;49.826;6.004;2023-04-16T20:05:24;9.20;99.90
14248;DHT22;7208;49.826;6.004;2023-04-16T20:07:51;9.20;99.90
14248;DHT22;7208;49.826;6.004;2023-04-16T20:10:16;9.20;99.90
14248;DHT22;7208;49.826;6.004;2023-04-16T20:12:42;9.20;99.90
14248;DHT22;7208;49.826;6.004;2023-04-16T20:15:08;9.20;99.90
14248;DHT22;7208;49.826;6.004;2023-04-16T20:17:33;9.20;99.90
14248;DHT22;7208;49.826;6.004;2023-04-16T20:19:59;9.10;99.90
14248;DHT22;7208;49.826;6.004;2023-04-16T20:22:28;9.10;99.90
14248;DHT22;7208;49.826;6.004;2023-04-16T20:24:54;9.10;99.90
14248;DHT22;7208;49.826;6.004;2023-04-16T20:27:20;9.10;99.90
14248;DHT22;7208;49.826;6.004;2023-04-16T20:29:45;9.00;99.90
14248;DHT22;7208;49.826;6.004;2023-04-16T20:32:11;9.00;99.90
14248;DHT22;7208;49.826;6.004;2023-04-16T20:34:37;9.00;99.90
14248;DHT22;7208;49.826;6.004;2023-04-16T20:37:03;9.00;99.90
14248;DHT22;7208;49.826;6.004;2023-04-16T20:39:29;9.00;99.90
14248;DHT22;7208;49.826;6.004;2023-04-16T20:41:58;8.90;99.90
14248;DHT22;7208;49.826;6.004;2023-04-16T20:44:25;8.90;99.90
14248;DHT22;7208;49.826;6.004;2023-04-16T20:46:58;8.90;99.90
14248;DHT22;7208;49.826;6.004;2023-04-16T20:49:24;8.90;99.90
14248;DHT22;7208;49.826;6.004;2023-04-16T20:51:49;8.90;99.90
14248;DHT22;7208;49.826;6.004;2023-04-16T20:54:15;8.90;99.90
14248;DHT22;7208;49.826;6.004;2023-04-16T20:56:41;8.90;99.90
14248;DHT22;7208;49.826;6.004;2023-04-16T20:59:08;8.90;99.90
14248;DHT22;7208;49.826;6.004;2023-04-16T21:01:33;8.80;99.90
14248;DHT22;7208;49.826;6.004;2023-04-16T21:03:59;8.80;99.90
14248;DHT22;7208;49.826;6.004;2023-04-16T21:06:26;8.80;99.90
14248;DHT22;7208;49.826;6.004;2023-04-16T21:08:51;8.80;99.90
14248;DHT22;7208;49.826;6.004;2023-04-16T21:11:17;8.80;99.90
14248;DHT22;7208;49.826;6.004;2023-04-16T21:13:43;8.80;99.90
14248;DHT22;7208;49.826;6.004;2023-04-16T21:16:08;8.80;99.90
14248;DHT22;7208;49.826;6.004;2023-04-16T21:18:37;8.80;99.90
14248;DHT22;7208;49.826;6.004;2023-04-16T21:21:02;8.80;99.90
14248;DHT22;7208;49.826;6.004;2023-04-16T21:23:28;8.80;99.90
14248;DHT22;7208;49.826;6.004;2023-04-16T21:25:54;8.80;99.90
14248;DHT22;7208;49.826;6.004;2023-04-16T21:28:20;8.80;99.90
14248;DHT22;7208;49.826;6.004;2023-04-16T21:30:50;8.90;99.90
14248;DHT22;7208;49.826;6.004;2023-04-16T21:33:16;8.90;99.90
14248;DHT22;7208;49.826;6.004;2023-04-16T21:35:41;8.80;99.90
14248;DHT22;7208;49.826;6.004;2023-04-16T21:38:07;8.80;99.90
14248;DHT22;7208;49.826;6.004;2023-04-16T21:40:33;8.90;99.90
14248;DHT22;7208;49.826;6.004;2023-04-16T21:42:58;8.90;99.90
14248;DHT22;7208;49.826;6.004;2023-04-16T21:45:24;8.90;99.90
14248;DHT22;7208;49.826;6.004;2023-04-16T21:47:49;8.90;99.90
14248;DHT22;7208;49.826;6.004;2023-04-16T21:50:15;8.90;99.90
14248;DHT22;7208;49.826;6.004;2023-04-16T21:52:41;8.90;99.90
14248;DHT22;7208;49.826;6.004;2023-04-16T21:55:10;8.90;99.90
14248;DHT22;7208;49.826;6.004;2023-04-16T21:57:36;8.90;99.90
14248;DHT22;7208;49.826;6.004;2023-04-16T22:00:02;8.80;99.90
14248;DHT22;7208;49.826;6.004;2023-04-16T22:02:33;8.80;99.90
14248;DHT22;7208;49.826;6.004;2023-04-16T22:04:58;8.80;99.90
14248;DHT22;7208;49.826;6.004;2023-04-16T22:07:24;8.80;99.90
14248;DHT22;7208;49.826;6.004;2023-04-16T22:09:51;8.60;99.90
14248;DHT22;7208;49.826;6.004;2023-04-16T22:12:17;8.80;99.90
14248;DHT22;7208;49.826;6.004;2023-04-16T22:14:43;8.80;99.90
14248;DHT22;7208;49.826;6.004;2023-04-16T22:17:09;8.70;99.90
14248;DHT22;7208;49.826;6.004;2023-04-16T22:19:35;8.70;99.90
14248;DHT22;7208;49.826;6.004;2023-04-16T22:22:01;8.70;99.90
14248;DHT22;7208;49.826;6.004;2023-04-16T22:24:27;8.70;99.90
14248;DHT22;7208;49.826;6.004;2023-04-16T22:26:53;8.70;99.90
14248;DHT22;7208;49.826;6.004;2023-04-16T22:29:18;8.70;99.90
14248;DHT22;7208;49.826;6.004;2023-04-16T22:31:44;8.70;99.90
14248;DHT22;7208;49.826;6.004;2023-04-16T22:34:10;8.70;99.90
14248;DHT22;7208;49.826;6.004;2023-04-16T22:36:35;8.70;99.90
14248;DHT22;7208;49.826;6.004;2023-04-16T22:39:01;8.70;99.90
14248;DHT22;7208;49.826;6.004;2023-04-16T22:41:26;8.70;99.90
14248;DHT22;7208;49.826;6.004;2023-04-16T22:43:52;8.70;99.90
14248;DHT22;7208;49.826;6.004;2023-04-16T22:46:17;8.70;99.90
14248;DHT22;7208;49.826;6.004;2023-04-16T22:48:46;8.70;99.90
14248;DHT22;7208;49.826;6.004;2023-04-16T22:51:13;8.70;99.90
14248;DHT22;7208;49.826;6.004;2023-04-16T22:53:38;8.70;99.90
14248;DHT22;7208;49.826;6.004;2023-04-16T22:56:04;8.70;99.90
14248;DHT22;7208;49.826;6.004;2023-04-16T22:58:30;8.70;99.90
14248;DHT22;7208;49.826;6.004;2023-04-16T23:00:56;8.70;99.90
14248;DHT22;7208;49.826;6.004;2023-04-16T23:03:24;8.70;99.90
14248;DHT22;7208;49.826;6.004;2023-04-16T23:05:49;8.60;99.90
14248;DHT22;7208;49.826;6.004;2023-04-16T23:08:15;8.60;99.90
14248;DHT22;7208;49.826;6.004;2023-04-16T23:10:40;8.60;99.90
14248;DHT22;7208;49.826;6.004;2023-04-16T23:13:06;8.60;99.90
14248;DHT22;7208;49.826;6.004;2023-04-16T23:15:31;8.50;99.90
14248;DHT22;7208;49.826;6.004;2023-04-16T23:17:57;8.50;99.90
14248;DHT22;7208;49.826;6.004;2023-04-16T23:20:23;8.50;99.90
14248;DHT22;7208;49.826;6.004;2023-04-16T23:22:48;8.50;99.90
14248;DHT22;7208;49.826;6.004;2023-04-16T23:25:14;8.50;99.90
14248;DHT22;7208;49.826;6.004;2023-04-16T23:27:40;8.60;99.90
14248;DHT22;7208;49.826;6.004;2023-04-16T23:30:06;8.60;99.90
14248;DHT22;7208;49.826;6.004;2023-04-16T23:32:32;8.60;99.90
14248;DHT22;7208;49.826;6.004;2023-04-16T23:34:58;8.50;99.90
14248;DHT22;7208;49.826;6.004;2023-04-16T23:37:24;8.60;99.90
14248;DHT22;7208;49.826;6.004;2023-04-16T23:39:50;8.50;99.90
14248;DHT22;7208;49.826;6.004;2023-04-16T23:42:15;8.60;99.90
14248;DHT22;7208;49.826;6.004;2023-04-16T23:44:41;8.60;99.90
14248;DHT22;7208;49.826;6.004;2023-04-16T23:47:07;8.60;99.90
14248;DHT22;7208;49.826;6.004;2023-04-16T23:49:32;8.60;99.90
14248;DHT22;7208;49.826;6.004;2023-04-16T23:51:58;8.70;99.90
14248;DHT22;7208;49.826;6.004;2023-04-16T23:54:24;8.70;99.90
14248;DHT22;7208;49.826;6.004;2023-04-16T23:56:49;8.60;99.90
14248;DHT22;7208;49.826;6.004;2023-04-16T23:59:15;8.70;99.90
